sensor_id;sensor_type;location;lat;lon;timestamp;temperature;humidity
58519;DHT22;44310;48.106;12.008;2022-10-16T00:01:27;19.70;92.50
58519;DHT22;44310;48.106;12.008;2022-10-16T00:03:56;19.70;92.50
58519;DHT22;44310;48.106;12.008;2022-10-16T00:06:25;19.70;92.50
58519;DHT22;44310;48.106;12.008;2022-10-16T00:08:52;19.80;92.70
58519;DHT22;44310;48.106;12.008;2022-10-16T00:11:21;19.80;92.70
58519;DHT22;44310;48.106;12.008;2022-10-16T00:13:50;19.90;92.60
58519;DHT22;44310;48.106;12.008;2022-10-16T00:16:18;19.80;92.60
58519;DHT22;44310;48.106;12.008;2022-10-16T00:18:45;19.80;92.60
58519;DHT22;44310;48.106;12.008;2022-10-16T00:21:18;19.90;92.60
58519;DHT22;44310;48.106;12.008;2022-10-16T00:23:46;19.80;92.60
58519;DHT22;44310;48.106;12.008;2022-10-16T00:26:15;19.90;92.60
58519;DHT22;44310;48.106;12.008;2022-10-16T00:28:49;19.90;92.60
58519;DHT22;44310;48.106;12.008;2022-10-16T00:31:18;19.90;92.70
58519;DHT22;44310;48.106;12.008;2022-10-16T00:33:46;19.90;92.80
58519;DHT22;44310;48.106;12.008;2022-10-16T00:36:16;19.90;92.80
58519;DHT22;44310;48.106;12.008;2022-10-16T00:38:43;19.90;92.90
58519;DHT22;44310;48.106;12.008;2022-10-16T00:41:15;19.90;92.90
58519;DHT22;44310;48.106;12.008;2022-10-16T00:43:55;19.90;92.90
58519;DHT22;44310;48.106;12.008;2022-10-16T00:46:41;19.90;93.00
58519;DHT22;44310;48.106;12.008;2022-10-16T00:49:11;19.90;93.00
58519;DHT22;44310;48.106;12.008;2022-10-16T00:51:45;19.90;93.00
58519;DHT22;44310;48.106;12.008;2022-10-16T00:54:19;19.90;93.00
58519;DHT22;44310;48.106;12.008;2022-10-16T00:56:48;19.90;93.00
58519;DHT22;44310;48.106;12.008;2022-10-16T00:59:37;19.90;93.00
58519;DHT22;44310;48.106;12.008;2022-10-16T01:02:07;19.90;93.00
58519;DHT22;44310;48.106;12.008;2022-10-16T01:04:47;19.90;92.90
58519;DHT22;44310;48.106;12.008;2022-10-16T01:15:18;19.80;92.90
58519;DHT22;44310;48.106;12.008;2022-10-16T01:18:00;19.90;93.10
58519;DHT22;44310;48.106;12.008;2022-10-16T01:20:56;19.90;92.80
58519;DHT22;44310;48.106;12.008;2022-10-16T01:26:42;19.80;92.80
58519;DHT22;44310;48.106;12.008;2022-10-16T01:29:16;19.80;92.80
58519;DHT22;44310;48.106;12.008;2022-10-16T01:31:51;19.80;92.70
58519;DHT22;44310;48.106;12.008;2022-10-16T01:34:30;19.80;92.70
58519;DHT22;44310;48.106;12.008;2022-10-16T01:37:11;19.80;92.70
58519;DHT22;44310;48.106;12.008;2022-10-16T01:39:41;19.80;92.60
58519;DHT22;44310;48.106;12.008;2022-10-16T01:42:20;19.80;92.60
58519;DHT22;44310;48.106;12.008;2022-10-16T01:44:51;19.80;92.60
58519;DHT22;44310;48.106;12.008;2022-10-16T01:47:22;19.80;92.50
58519;DHT22;44310;48.106;12.008;2022-10-16T01:49:51;19.80;92.50
58519;DHT22;44310;48.106;12.008;2022-10-16T01:52:22;19.80;92.40
58519;DHT22;44310;48.106;12.008;2022-10-16T01:54:53;19.90;92.40
58519;DHT22;44310;48.106;12.008;2022-10-16T01:57:23;19.80;92.40
58519;DHT22;44310;48.106;12.008;2022-10-16T01:59:54;19.80;92.70
58519;DHT22;44310;48.106;12.008;2022-10-16T02:02:23;19.90;92.40
58519;DHT22;44310;48.106;12.008;2022-10-16T02:05:20;19.80;92.50
58519;DHT22;44310;48.106;12.008;2022-10-16T02:07:44;19.80;92.40
58519;DHT22;44310;48.106;12.008;2022-10-16T02:10:11;19.80;92.30
58519;DHT22;44310;48.106;12.008;2022-10-16T02:12:41;19.80;92.40
58519;DHT22;44310;48.106;12.008;2022-10-16T02:15:11;19.80;92.40
58519;DHT22;44310;48.106;12.008;2022-10-16T02:17:38;19.80;92.40
58519;DHT22;44310;48.106;12.008;2022-10-16T02:20:05;19.80;92.30
58519;DHT22;44310;48.106;12.008;2022-10-16T02:22:39;19.80;92.30
58519;DHT22;44310;48.106;12.008;2022-10-16T02:25:24;19.80;92.30
58519;DHT22;44310;48.106;12.008;2022-10-16T02:28:16;19.80;92.30
58519;DHT22;44310;48.106;12.008;2022-10-16T02:31:22;19.80;92.20
58519;DHT22;44310;48.106;12.008;2022-10-16T02:33:42;19.80;92.20
58519;DHT22;44310;48.106;12.008;2022-10-16T02:36:10;19.80;92.20
58519;DHT22;44310;48.106;12.008;2022-10-16T02:38:38;19.80;92.20
58519;DHT22;44310;48.106;12.008;2022-10-16T02:41:06;19.80;92.20
58519;DHT22;44310;48.106;12.008;2022-10-16T02:43:34;19.80;92.20
58519;DHT22;44310;48.106;12.008;2022-10-16T02:46:01;19.80;92.20
58519;DHT22;44310;48.106;12.008;2022-10-16T02:48:28;19.80;92.10
58519;DHT22;44310;48.106;12.008;2022-10-16T02:50:55;19.80;92.10
58519;DHT22;44310;48.106;12.008;2022-10-16T02:53:23;19.80;92.10
58519;DHT22;44310;48.106;12.008;2022-10-16T02:55:50;19.80;92.00
58519;DHT22;44310;48.106;12.008;2022-10-16T02:58:18;19.80;92.00
58519;DHT22;44310;48.106;12.008;2022-10-16T03:00:45;19.80;91.90
58519;DHT22;44310;48.106;12.008;2022-10-16T03:03:13;19.80;91.90
58519;DHT22;44310;48.106;12.008;2022-10-16T03:05:40;19.80;91.90
58519;DHT22;44310;48.106;12.008;2022-10-16T03:08:07;19.80;91.80
58519;DHT22;44310;48.106;12.008;2022-10-16T03:10:34;19.80;91.80
58519;DHT22;44310;48.106;12.008;2022-10-16T03:13:01;19.80;91.80
58519;DHT22;44310;48.106;12.008;2022-10-16T03:15:28;19.80;91.80
58519;DHT22;44310;48.106;12.008;2022-10-16T03:17:58;19.80;91.80
58519;DHT22;44310;48.106;12.008;2022-10-16T03:20:25;19.80;91.90
58519;DHT22;44310;48.106;12.008;2022-10-16T03:22:52;19.80;91.90
58519;DHT22;44310;48.106;12.008;2022-10-16T03:25:19;19.80;91.80
58519;DHT22;44310;48.106;12.008;2022-10-16T03:27:46;19.80;91.80
58519;DHT22;44310;48.106;12.008;2022-10-16T03:30:14;19.90;91.90
58519;DHT22;44310;48.106;12.008;2022-10-16T03:32:41;19.90;91.80
58519;DHT22;44310;48.106;12.008;2022-10-16T03:35:08;19.80;91.80
58519;DHT22;44310;48.106;12.008;2022-10-16T03:37:35;19.90;91.80
58519;DHT22;44310;48.106;12.008;2022-10-16T03:40:04;19.90;91.90
58519;DHT22;44310;48.106;12.008;2022-10-16T03:42:31;19.80;92.20
58519;DHT22;44310;48.106;12.008;2022-10-16T03:44:58;19.90;92.00
58519;DHT22;44310;48.106;12.008;2022-10-16T03:47:25;19.90;92.10
58519;DHT22;44310;48.106;12.008;2022-10-16T03:49:53;19.90;92.10
58519;DHT22;44310;48.106;12.008;2022-10-16T03:52:20;19.90;92.20
58519;DHT22;44310;48.106;12.008;2022-10-16T03:54:47;19.80;92.10
58519;DHT22;44310;48.106;12.008;2022-10-16T03:57:14;19.90;92.10
58519;DHT22;44310;48.106;12.008;2022-10-16T03:59:41;19.90;92.10
58519;DHT22;44310;48.106;12.008;2022-10-16T04:02:08;19.80;92.00
58519;DHT22;44310;48.106;12.008;2022-10-16T04:04:35;19.80;92.00
58519;DHT22;44310;48.106;12.008;2022-10-16T04:07:02;19.80;92.00
58519;DHT22;44310;48.106;12.008;2022-10-16T04:09:29;19.80;92.00
58519;DHT22;44310;48.106;12.008;2022-10-16T04:11:56;19.80;91.90
58519;DHT22;44310;48.106;12.008;2022-10-16T04:14:23;19.80;91.90
58519;DHT22;44310;48.106;12.008;2022-10-16T04:16:50;19.80;91.80
58519;DHT22;44310;48.106;12.008;2022-10-16T04:19:17;20.00;91.80
58519;DHT22;44310;48.106;12.008;2022-10-16T04:21:44;19.80;91.80
58519;DHT22;44310;48.106;12.008;2022-10-16T04:24:11;19.80;91.70
58519;DHT22;44310;48.106;12.008;2022-10-16T04:26:39;19.80;91.60
58519;DHT22;44310;48.106;12.008;2022-10-16T04:29:06;19.80;91.50
58519;DHT22;44310;48.106;12.008;2022-10-16T04:31:34;19.80;91.50
58519;DHT22;44310;48.106;12.008;2022-10-16T04:34:01;19.80;91.50
58519;DHT22;44310;48.106;12.008;2022-10-16T04:36:28;19.70;91.50
58519;DHT22;44310;48.106;12.008;2022-10-16T04:38:55;19.70;91.40
58519;DHT22;44310;48.106;12.008;2022-10-16T04:41:22;19.80;91.40
58519;DHT22;44310;48.106;12.008;2022-10-16T04:43:49;19.80;91.40
58519;DHT22;44310;48.106;12.008;2022-10-16T04:46:16;19.70;91.30
58519;DHT22;44310;48.106;12.008;2022-10-16T04:48:43;19.70;91.40
58519;DHT22;44310;48.106;12.008;2022-10-16T04:51:10;19.80;91.40
58519;DHT22;44310;48.106;12.008;2022-10-16T04:53:38;19.70;91.30
58519;DHT22;44310;48.106;12.008;2022-10-16T04:56:05;19.70;91.30
58519;DHT22;44310;48.106;12.008;2022-10-16T04:58:32;19.70;91.30
58519;DHT22;44310;48.106;12.008;2022-10-16T05:00:59;19.70;91.30
58519;DHT22;44310;48.106;12.008;2022-10-16T05:03:26;19.70;91.30
58519;DHT22;44310;48.106;12.008;2022-10-16T05:05:54;19.70;91.30
58519;DHT22;44310;48.106;12.008;2022-10-16T05:08:21;19.70;91.30
58519;DHT22;44310;48.106;12.008;2022-10-16T05:10:48;19.70;91.30
58519;DHT22;44310;48.106;12.008;2022-10-16T05:13:15;19.70;91.30
58519;DHT22;44310;48.106;12.008;2022-10-16T05:15:42;19.70;91.30
58519;DHT22;44310;48.106;12.008;2022-10-16T05:18:13;19.70;91.30
58519;DHT22;44310;48.106;12.008;2022-10-16T05:20:41;19.60;91.30
58519;DHT22;44310;48.106;12.008;2022-10-16T05:23:08;19.60;91.30
58519;DHT22;44310;48.106;12.008;2022-10-16T05:25:37;19.70;91.50
58519;DHT22;44310;48.106;12.008;2022-10-16T05:28:04;19.70;91.50
58519;DHT22;44310;48.106;12.008;2022-10-16T05:30:31;19.70;91.50
58519;DHT22;44310;48.106;12.008;2022-10-16T05:32:58;19.70;91.40
58519;DHT22;44310;48.106;12.008;2022-10-16T05:35:25;19.70;91.40
58519;DHT22;44310;48.106;12.008;2022-10-16T05:37:52;19.70;91.40
58519;DHT22;44310;48.106;12.008;2022-10-16T05:40:20;19.70;91.30
58519;DHT22;44310;48.106;12.008;2022-10-16T05:42:47;19.70;91.30
58519;DHT22;44310;48.106;12.008;2022-10-16T05:45:14;19.70;91.30
58519;DHT22;44310;48.106;12.008;2022-10-16T05:47:41;19.80;91.30
58519;DHT22;44310;48.106;12.008;2022-10-16T05:50:08;19.70;91.30
58519;DHT22;44310;48.106;12.008;2022-10-16T05:52:35;19.70;91.40
58519;DHT22;44310;48.106;12.008;2022-10-16T05:55:03;19.80;91.40
58519;DHT22;44310;48.106;12.008;2022-10-16T05:57:30;19.80;91.40
58519;DHT22;44310;48.106;12.008;2022-10-16T05:59:57;19.80;91.30
58519;DHT22;44310;48.106;12.008;2022-10-16T06:02:24;19.80;91.30
58519;DHT22;44310;48.106;12.008;2022-10-16T06:04:52;19.80;91.30
58519;DHT22;44310;48.106;12.008;2022-10-16T06:07:21;19.80;91.20
58519;DHT22;44310;48.106;12.008;2022-10-16T06:09:52;19.80;91.20
58519;DHT22;44310;48.106;12.008;2022-10-16T06:12:19;19.80;91.20
58519;DHT22;44310;48.106;12.008;2022-10-16T06:14:46;19.80;91.20
58519;DHT22;44310;48.106;12.008;2022-10-16T06:17:14;19.80;91.20
58519;DHT22;44310;48.106;12.008;2022-10-16T06:19:41;19.80;91.10
58519;DHT22;44310;48.106;12.008;2022-10-16T06:22:08;19.80;91.10
58519;DHT22;44310;48.106;12.008;2022-10-16T06:24:36;19.80;91.10
58519;DHT22;44310;48.106;12.008;2022-10-16T06:27:03;19.80;91.10
58519;DHT22;44310;48.106;12.008;2022-10-16T06:29:31;19.80;91.10
58519;DHT22;44310;48.106;12.008;2022-10-16T06:31:58;19.70;91.00
58519;DHT22;44310;48.106;12.008;2022-10-16T06:34:25;19.70;91.00
58519;DHT22;44310;48.106;12.008;2022-10-16T06:36:52;19.80;91.00
58519;DHT22;44310;48.106;12.008;2022-10-16T06:39:19;19.80;91.00
58519;DHT22;44310;48.106;12.008;2022-10-16T06:41:46;19.80;91.00
58519;DHT22;44310;48.106;12.008;2022-10-16T06:44:13;19.80;91.00
58519;DHT22;44310;48.106;12.008;2022-10-16T06:46:40;19.80;91.00
58519;DHT22;44310;48.106;12.008;2022-10-16T06:49:07;19.80;90.90
58519;DHT22;44310;48.106;12.008;2022-10-16T06:51:34;19.70;91.20
58519;DHT22;44310;48.106;12.008;2022-10-16T06:54:08;19.70;90.90
58519;DHT22;44310;48.106;12.008;2022-10-16T06:56:35;19.70;90.90
58519;DHT22;44310;48.106;12.008;2022-10-16T06:59:03;19.70;90.90
58519;DHT22;44310;48.106;12.008;2022-10-16T07:01:31;19.70;90.90
58519;DHT22;44310;48.106;12.008;2022-10-16T07:03:58;19.80;91.00
58519;DHT22;44310;48.106;12.008;2022-10-16T07:06:26;19.80;91.00
58519;DHT22;44310;48.106;12.008;2022-10-16T07:08:54;19.80;91.00
58519;DHT22;44310;48.106;12.008;2022-10-16T07:11:22;19.80;91.00
58519;DHT22;44310;48.106;12.008;2022-10-16T07:13:50;19.80;91.00
58519;DHT22;44310;48.106;12.008;2022-10-16T07:16:24;19.80;90.90
58519;DHT22;44310;48.106;12.008;2022-10-16T07:18:54;19.80;91.00
58519;DHT22;44310;48.106;12.008;2022-10-16T07:21:27;19.90;91.10
58519;DHT22;44310;48.106;12.008;2022-10-16T07:23:59;19.80;91.10
58519;DHT22;44310;48.106;12.008;2022-10-16T07:26:29;19.90;91.10
58519;DHT22;44310;48.106;12.008;2022-10-16T07:28:58;19.80;91.10
58519;DHT22;44310;48.106;12.008;2022-10-16T07:31:26;19.90;91.10
58519;DHT22;44310;48.106;12.008;2022-10-16T07:33:53;19.80;91.10
58519;DHT22;44310;48.106;12.008;2022-10-16T07:36:21;19.80;91.20
58519;DHT22;44310;48.106;12.008;2022-10-16T07:38:48;19.80;91.20
58519;DHT22;44310;48.106;12.008;2022-10-16T07:41:19;19.80;91.20
58519;DHT22;44310;48.106;12.008;2022-10-16T07:43:48;19.80;91.20
58519;DHT22;44310;48.106;12.008;2022-10-16T07:46:17;19.80;91.10
58519;DHT22;44310;48.106;12.008;2022-10-16T07:48:45;19.90;91.10
58519;DHT22;44310;48.106;12.008;2022-10-16T07:51:16;19.80;91.10
58519;DHT22;44310;48.106;12.008;2022-10-16T07:53:43;19.80;91.10
58519;DHT22;44310;48.106;12.008;2022-10-16T07:56:11;19.80;91.00
58519;DHT22;44310;48.106;12.008;2022-10-16T07:58:38;19.80;91.00
58519;DHT22;44310;48.106;12.008;2022-10-16T08:01:08;19.80;91.00
58519;DHT22;44310;48.106;12.008;2022-10-16T08:03:36;19.80;91.00
58519;DHT22;44310;48.106;12.008;2022-10-16T08:06:04;19.80;90.90
58519;DHT22;44310;48.106;12.008;2022-10-16T08:08:31;19.80;90.90
58519;DHT22;44310;48.106;12.008;2022-10-16T08:10:58;19.80;90.80
58519;DHT22;44310;48.106;12.008;2022-10-16T08:13:25;19.80;90.90
58519;DHT22;44310;48.106;12.008;2022-10-16T08:15:53;19.80;90.90
58519;DHT22;44310;48.106;12.008;2022-10-16T08:18:21;19.80;91.00
58519;DHT22;44310;48.106;12.008;2022-10-16T08:20:54;19.80;91.00
58519;DHT22;44310;48.106;12.008;2022-10-16T08:23:21;19.80;91.00
58519;DHT22;44310;48.106;12.008;2022-10-16T08:25:48;19.90;91.10
58519;DHT22;44310;48.106;12.008;2022-10-16T08:28:16;19.90;91.10
58519;DHT22;44310;48.106;12.008;2022-10-16T08:30:43;19.90;91.10
58519;DHT22;44310;48.106;12.008;2022-10-16T08:33:10;19.90;91.20
58519;DHT22;44310;48.106;12.008;2022-10-16T08:35:38;19.90;91.20
58519;DHT22;44310;48.106;12.008;2022-10-16T08:38:06;19.90;91.30
58519;DHT22;44310;48.106;12.008;2022-10-16T08:40:35;19.90;91.40
58519;DHT22;44310;48.106;12.008;2022-10-16T08:48:53;19.90;91.50
58519;DHT22;44310;48.106;12.008;2022-10-16T08:51:30;19.90;91.50
58519;DHT22;44310;48.106;12.008;2022-10-16T08:54:01;19.90;91.60
58519;DHT22;44310;48.106;12.008;2022-10-16T08:56:30;19.90;91.60
58519;DHT22;44310;48.106;12.008;2022-10-16T08:58:58;20.00;91.60
58519;DHT22;44310;48.106;12.008;2022-10-16T09:01:46;19.90;91.70
58519;DHT22;44310;48.106;12.008;2022-10-16T09:04:53;19.90;91.70
58519;DHT22;44310;48.106;12.008;2022-10-16T09:07:35;19.90;91.70
58519;DHT22;44310;48.106;12.008;2022-10-16T09:13:33;19.90;91.70
58519;DHT22;44310;48.106;12.008;2022-10-16T09:16:19;19.90;91.70
58519;DHT22;44310;48.106;12.008;2022-10-16T09:18:58;19.90;91.70
58519;DHT22;44310;48.106;12.008;2022-10-16T09:21:30;19.90;91.70
58519;DHT22;44310;48.106;12.008;2022-10-16T09:24:00;19.90;91.70
58519;DHT22;44310;48.106;12.008;2022-10-16T09:26:31;19.90;91.70
58519;DHT22;44310;48.106;12.008;2022-10-16T09:28:58;19.90;91.70
58519;DHT22;44310;48.106;12.008;2022-10-16T09:31:25;20.00;91.80
58519;DHT22;44310;48.106;12.008;2022-10-16T09:33:55;19.90;91.70
58519;DHT22;44310;48.106;12.008;2022-10-16T09:36:27;19.90;91.80
58519;DHT22;44310;48.106;12.008;2022-10-16T09:39:04;19.90;91.80
58519;DHT22;44310;48.106;12.008;2022-10-16T09:41:34;20.00;91.80
58519;DHT22;44310;48.106;12.008;2022-10-16T09:44:04;20.00;91.90
58519;DHT22;44310;48.106;12.008;2022-10-16T09:46:36;19.90;91.90
58519;DHT22;44310;48.106;12.008;2022-10-16T09:51:45;19.90;92.00
58519;DHT22;44310;48.106;12.008;2022-10-16T09:54:18;20.00;92.00
58519;DHT22;44310;48.106;12.008;2022-10-16T09:56:46;20.00;92.00
58519;DHT22;44310;48.106;12.008;2022-10-16T09:59:19;20.00;92.00
58519;DHT22;44310;48.106;12.008;2022-10-16T10:01:51;20.00;92.00
58519;DHT22;44310;48.106;12.008;2022-10-16T10:04:21;20.00;92.00
58519;DHT22;44310;48.106;12.008;2022-10-16T10:06:53;20.00;92.10
58519;DHT22;44310;48.106;12.008;2022-10-16T10:09:24;20.00;92.00
58519;DHT22;44310;48.106;12.008;2022-10-16T10:11:54;20.00;92.00
58519;DHT22;44310;48.106;12.008;2022-10-16T10:14:37;20.00;92.10
58519;DHT22;44310;48.106;12.008;2022-10-16T10:19:48;20.00;92.10
58519;DHT22;44310;48.106;12.008;2022-10-16T10:36:25;20.00;92.30
58519;DHT22;44310;48.106;12.008;2022-10-16T10:50:30;20.00;92.60
58519;DHT22;44310;48.106;12.008;2022-10-16T10:53:25;20.00;92.70
58519;DHT22;44310;48.106;12.008;2022-10-16T11:01:16;20.00;92.80
58519;DHT22;44310;48.106;12.008;2022-10-16T11:06:40;20.00;92.90
58519;DHT22;44310;48.106;12.008;2022-10-16T11:09:23;20.00;92.90
58519;DHT22;44310;48.106;12.008;2022-10-16T11:11:56;20.00;92.90
58519;DHT22;44310;48.106;12.008;2022-10-16T11:17:22;20.10;92.90
58519;DHT22;44310;48.106;12.008;2022-10-16T11:20:02;20.10;93.00
58519;DHT22;44310;48.106;12.008;2022-10-16T11:22:37;20.10;93.00
58519;DHT22;44310;48.106;12.008;2022-10-16T11:25:21;20.10;93.10
58519;DHT22;44310;48.106;12.008;2022-10-16T11:31:47;20.10;93.10
58519;DHT22;44310;48.106;12.008;2022-10-16T11:36:57;20.10;93.10
58519;DHT22;44310;48.106;12.008;2022-10-16T11:39:32;20.10;93.20
58519;DHT22;44310;48.106;12.008;2022-10-16T11:42:09;20.10;93.20
58519;DHT22;44310;48.106;12.008;2022-10-16T11:45:03;20.10;93.10
58519;DHT22;44310;48.106;12.008;2022-10-16T11:50:49;20.10;93.10
58519;DHT22;44310;48.106;12.008;2022-10-16T11:55:50;20.10;91.80
58519;DHT22;44310;48.106;12.008;2022-10-16T11:58:35;20.20;91.10
58519;DHT22;44310;48.106;12.008;2022-10-16T12:01:17;20.10;89.80
58519;DHT22;44310;48.106;12.008;2022-10-16T12:06:22;20.20;87.80
58519;DHT22;44310;48.106;12.008;2022-10-16T12:08:53;20.30;88.30
58519;DHT22;44310;48.106;12.008;2022-10-16T12:11:47;20.30;88.20
58519;DHT22;44310;48.106;12.008;2022-10-16T12:16:58;20.50;88.20
58519;DHT22;44310;48.106;12.008;2022-10-16T12:19:30;20.40;87.20
58519;DHT22;44310;48.106;12.008;2022-10-16T12:22:00;20.40;86.50
58519;DHT22;44310;48.106;12.008;2022-10-16T12:24:53;20.30;86.90
58519;DHT22;44310;48.106;12.008;2022-10-16T12:27:31;20.40;87.50
58519;DHT22;44310;48.106;12.008;2022-10-16T12:30:04;20.30;86.60
58519;DHT22;44310;48.106;12.008;2022-10-16T12:32:37;20.40;87.10
58519;DHT22;44310;48.106;12.008;2022-10-16T12:35:20;20.40;87.00
58519;DHT22;44310;48.106;12.008;2022-10-16T12:37:48;20.40;86.20
58519;DHT22;44310;48.106;12.008;2022-10-16T12:40:28;20.40;85.80
58519;DHT22;44310;48.106;12.008;2022-10-16T12:42:56;20.40;85.60
58519;DHT22;44310;48.106;12.008;2022-10-16T12:45:34;20.40;86.20
58519;DHT22;44310;48.106;12.008;2022-10-16T12:48:02;20.40;86.20
58519;DHT22;44310;48.106;12.008;2022-10-16T12:50:34;20.50;86.00
58519;DHT22;44310;48.106;12.008;2022-10-16T12:53:04;20.50;85.90
58519;DHT22;44310;48.106;12.008;2022-10-16T13:01:52;20.50;84.70
58519;DHT22;44310;48.106;12.008;2022-10-16T13:04:40;20.60;84.90
58519;DHT22;44310;48.106;12.008;2022-10-16T13:09:56;20.60;84.80
58519;DHT22;44310;48.106;12.008;2022-10-16T13:17:55;20.60;85.30
58519;DHT22;44310;48.106;12.008;2022-10-16T13:23:33;20.40;83.40
58519;DHT22;44310;48.106;12.008;2022-10-16T13:28:43;20.50;84.40
58519;DHT22;44310;48.106;12.008;2022-10-16T13:31:21;20.50;85.30
58519;DHT22;44310;48.106;12.008;2022-10-16T13:33:53;20.60;85.40
58519;DHT22;44310;48.106;12.008;2022-10-16T13:36:27;20.60;84.70
58519;DHT22;44310;48.106;12.008;2022-10-16T13:39:14;20.50;85.60
58519;DHT22;44310;48.106;12.008;2022-10-16T13:41:41;20.50;85.60
58519;DHT22;44310;48.106;12.008;2022-10-16T13:44:20;20.50;84.30
58519;DHT22;44310;48.106;12.008;2022-10-16T13:47:01;20.50;84.30
58519;DHT22;44310;48.106;12.008;2022-10-16T13:49:28;20.40;84.30
58519;DHT22;44310;48.106;12.008;2022-10-16T13:51:59;20.40;82.90
58519;DHT22;44310;48.106;12.008;2022-10-16T13:54:27;20.30;82.70
58519;DHT22;44310;48.106;12.008;2022-10-16T13:56:55;20.20;83.00
58519;DHT22;44310;48.106;12.008;2022-10-16T13:59:36;20.30;83.20
58519;DHT22;44310;48.106;12.008;2022-10-16T14:04:53;20.30;83.50
58519;DHT22;44310;48.106;12.008;2022-10-16T14:07:30;20.30;83.70
58519;DHT22;44310;48.106;12.008;2022-10-16T14:10:02;20.30;83.10
58519;DHT22;44310;48.106;12.008;2022-10-16T14:12:30;20.30;83.40
58519;DHT22;44310;48.106;12.008;2022-10-16T14:14:58;20.20;83.10
58519;DHT22;44310;48.106;12.008;2022-10-16T14:17:28;20.20;83.10
58519;DHT22;44310;48.106;12.008;2022-10-16T14:19:58;20.20;83.40
58519;DHT22;44310;48.106;12.008;2022-10-16T14:25:27;20.20;84.00
58519;DHT22;44310;48.106;12.008;2022-10-16T14:28:16;20.20;84.40
58519;DHT22;44310;48.106;12.008;2022-10-16T14:30:55;20.20;85.60
58519;DHT22;44310;48.106;12.008;2022-10-16T14:33:33;20.20;85.50
58519;DHT22;44310;48.106;12.008;2022-10-16T14:36:05;20.20;84.50
58519;DHT22;44310;48.106;12.008;2022-10-16T14:38:33;20.10;84.50
58519;DHT22;44310;48.106;12.008;2022-10-16T14:41:01;20.10;84.70
58519;DHT22;44310;48.106;12.008;2022-10-16T14:43:39;20.00;84.20
58519;DHT22;44310;48.106;12.008;2022-10-16T14:46:13;20.00;83.80
58519;DHT22;44310;48.106;12.008;2022-10-16T14:48:42;20.00;83.90
58519;DHT22;44310;48.106;12.008;2022-10-16T14:51:19;20.00;83.50
58519;DHT22;44310;48.106;12.008;2022-10-16T14:53:47;20.00;83.80
58519;DHT22;44310;48.106;12.008;2022-10-16T14:56:19;20.10;83.00
58519;DHT22;44310;48.106;12.008;2022-10-16T14:58:47;20.10;83.30
58519;DHT22;44310;48.106;12.008;2022-10-16T15:01:15;20.10;82.90
58519;DHT22;44310;48.106;12.008;2022-10-16T15:03:43;20.10;82.90
58519;DHT22;44310;48.106;12.008;2022-10-16T15:06:15;20.10;83.00
58519;DHT22;44310;48.106;12.008;2022-10-16T15:08:42;20.00;83.10
58519;DHT22;44310;48.106;12.008;2022-10-16T15:11:15;20.00;83.70
58519;DHT22;44310;48.106;12.008;2022-10-16T15:13:43;20.00;83.60
58519;DHT22;44310;48.106;12.008;2022-10-16T15:16:14;20.00;84.30
58519;DHT22;44310;48.106;12.008;2022-10-16T15:18:42;19.90;84.30
58519;DHT22;44310;48.106;12.008;2022-10-16T15:21:29;19.90;84.60
58519;DHT22;44310;48.106;12.008;2022-10-16T15:23:57;19.90;85.00
58519;DHT22;44310;48.106;12.008;2022-10-16T15:26:25;19.90;85.40
58519;DHT22;44310;48.106;12.008;2022-10-16T15:28:53;19.80;86.10
58519;DHT22;44310;48.106;12.008;2022-10-16T15:31:21;19.80;86.60
58519;DHT22;44310;48.106;12.008;2022-10-16T15:33:50;19.80;87.10
58519;DHT22;44310;48.106;12.008;2022-10-16T15:36:31;19.70;87.40
58519;DHT22;44310;48.106;12.008;2022-10-16T15:39:00;19.70;87.60
58519;DHT22;44310;48.106;12.008;2022-10-16T15:41:27;19.70;87.80
58519;DHT22;44310;48.106;12.008;2022-10-16T15:43:54;19.60;88.00
58519;DHT22;44310;48.106;12.008;2022-10-16T15:46:23;19.60;88.20
58519;DHT22;44310;48.106;12.008;2022-10-16T15:48:51;19.60;88.60
58519;DHT22;44310;48.106;12.008;2022-10-16T15:51:22;19.50;88.80
58519;DHT22;44310;48.106;12.008;2022-10-16T15:53:49;19.50;89.10
58519;DHT22;44310;48.106;12.008;2022-10-16T15:56:17;19.50;89.40
58519;DHT22;44310;48.106;12.008;2022-10-16T15:58:44;19.40;90.00
58519;DHT22;44310;48.106;12.008;2022-10-16T16:01:12;19.40;90.10
58519;DHT22;44310;48.106;12.008;2022-10-16T16:03:39;19.40;90.20
58519;DHT22;44310;48.106;12.008;2022-10-16T16:06:09;19.40;90.30
58519;DHT22;44310;48.106;12.008;2022-10-16T16:08:37;19.30;90.20
58519;DHT22;44310;48.106;12.008;2022-10-16T16:11:10;19.40;90.30
58519;DHT22;44310;48.106;12.008;2022-10-16T16:13:37;19.40;90.30
58519;DHT22;44310;48.106;12.008;2022-10-16T16:16:10;19.40;90.30
58519;DHT22;44310;48.106;12.008;2022-10-16T16:18:38;19.30;90.20
58519;DHT22;44310;48.106;12.008;2022-10-16T16:21:05;19.30;90.50
58519;DHT22;44310;48.106;12.008;2022-10-16T16:23:32;19.30;90.60
58519;DHT22;44310;48.106;12.008;2022-10-16T16:26:32;19.30;90.50
58519;DHT22;44310;48.106;12.008;2022-10-16T16:29:03;19.30;90.70
58519;DHT22;44310;48.106;12.008;2022-10-16T16:31:31;19.50;91.40
58519;DHT22;44310;48.106;12.008;2022-10-16T16:33:59;19.60;91.50
58519;DHT22;44310;48.106;12.008;2022-10-16T16:36:26;19.70;91.40
58519;DHT22;44310;48.106;12.008;2022-10-16T16:38:53;19.90;91.70
58519;DHT22;44310;48.106;12.008;2022-10-16T16:41:22;20.00;91.70
58519;DHT22;44310;48.106;12.008;2022-10-16T16:43:50;20.10;91.70
58519;DHT22;44310;48.106;12.008;2022-10-16T16:46:20;20.10;91.70
58519;DHT22;44310;48.106;12.008;2022-10-16T16:48:48;20.20;91.80
58519;DHT22;44310;48.106;12.008;2022-10-16T16:51:18;20.20;91.90
58519;DHT22;44310;48.106;12.008;2022-10-16T16:53:49;20.20;91.90
58519;DHT22;44310;48.106;12.008;2022-10-16T16:56:17;20.20;91.90
58519;DHT22;44310;48.106;12.008;2022-10-16T16:58:52;20.20;92.10
58519;DHT22;44310;48.106;12.008;2022-10-16T17:01:20;20.30;92.20
58519;DHT22;44310;48.106;12.008;2022-10-16T17:03:50;20.30;92.30
58519;DHT22;44310;48.106;12.008;2022-10-16T17:06:20;20.30;92.40
58519;DHT22;44310;48.106;12.008;2022-10-16T17:08:48;20.30;92.60
58519;DHT22;44310;48.106;12.008;2022-10-16T17:11:22;20.30;92.80
58519;DHT22;44310;48.106;12.008;2022-10-16T17:13:51;20.30;92.90
58519;DHT22;44310;48.106;12.008;2022-10-16T17:16:34;20.30;92.90
58519;DHT22;44310;48.106;12.008;2022-10-16T17:19:03;20.30;93.10
58519;DHT22;44310;48.106;12.008;2022-10-16T17:21:30;20.30;93.10
58519;DHT22;44310;48.106;12.008;2022-10-16T17:23:59;20.30;93.10